Time;durP1;ratioP1;P1;durP2;ratioP2;P2;SDS_P1;SDS_P2;PMS_P1;PMS_P2;Temp;Humidity;BMP_temperature;BMP_pressure;BME280_temperature;BME280_humidity;BME280_pressure;Samples;Min_cycle;Max_cycle;Signal;HPM_P1;HPM_P2
2021/06/22 00:00:51;;;;;;;;;75.00;62.25;;;;;26.83;47.38;100694.03;4903823;29;10041;-79
2021/06/22 00:03:46;;;;;;;;;93.00;89.50;;;;;26.72;47.91;100696.34;4903789;29;11312;-79
2021/06/22 00:06:42;;;;;;;;;99.00;93.75;;;;;26.81;48.56;100714.34;4903771;29;11246;-78
2021/06/22 00:09:37;;;;;;;;;108.25;104.75;;;;;26.82;49.04;100700.97;4915994;29;11699;-77
2021/06/22 00:12:33;;;;;;;;;97.75;96.50;;;;;26.91;49.21;100715.31;4916624;29;11735;-77
2021/06/22 00:15:30;;;;;;;;;103.75;96.75;;;;;26.70;49.69;100730.84;4903758;29;11670;-77
2021/06/22 00:18:26;;;;;;;;;96.00;93.50;;;;;26.90;50.52;100744.94;4916262;29;11658;-78
2021/06/22 00:21:21;;;;;;;;;83.75;79.00;;;;;26.57;51.90;100736.38;4915666;29;12664;-78
2021/06/22 00:24:17;;;;;;;;;76.00;70.75;;;;;26.48;51.84;100724.84;4916138;29;10505;-78
2021/06/22 00:27:13;;;;;;;;;63.00;51.00;;;;;26.18;53.49;100714.56;4916090;29;9590;-77
2021/06/22 00:30:10;;;;;;;;;71.50;63.75;;;;;26.23;52.76;100693.41;4903491;29;8952;-78
2021/06/22 00:32:38;;;;;;;;;93.50;90.25;;;;;26.15;52.97;100726.78;4916981;29;10296;-79
2021/06/22 00:35:34;;;;;;;;;91.75;88.50;;;;;26.28;52.67;100719.19;4916260;29;11067;-77
2021/06/22 00:38:29;;;;;;;;;145.00;137.25;;;;;26.27;53.27;100709.09;4915792;29;11010;-77
2021/06/22 00:41:25;;;;;;;;;188.00;172.67;;;;;26.11;53.46;100663.69;4903299;29;11728;-77
2021/06/22 00:44:20;;;;;;;;;128.00;123.75;;;;;26.27;53.34;100638.22;4915970;29;8852;-77
2021/06/22 00:47:16;;;;;;;;;115.75;106.75;;;;;26.25;52.37;100710.78;4903122;29;11731;-78
2021/06/22 00:50:12;;;;;;;;;143.75;135.25;;;;;26.24;52.31;100697.84;4903554;29;11695;-78
2021/06/22 00:53:08;;;;;;;;;156.33;150.00;;;;;26.19;52.36;100706.84;4914976;29;11830;-77
2021/06/22 00:56:04;;;;;;;;;99.75;97.50;;;;;26.04;53.00;100683.69;4915410;29;9614;-77
2021/06/22 00:58:59;;;;;;;;;80.25;78.75;;;;;25.96;53.22;100688.69;4903606;29;11652;-77
2021/06/22 01:01:55;;;;;;;;;67.67;55.67;;;;;26.01;53.07;100682.53;4903166;29;10527;-77
2021/06/22 01:04:50;;;;;;;;;70.00;59.50;;;;;25.92;53.99;100678.69;4916304;29;9122;-76
2021/06/22 01:07:47;;;;;;;;;44.75;37.00;;;;;25.73;53.35;100663.28;4915722;29;9753;-77
2021/06/22 01:10:43;;;;;;;;;35.50;32.75;;;;;25.77;53.61;100687.47;4916198;29;8876;-77
2021/06/22 01:13:39;;;;;;;;;35.50;32.00;;;;;25.90;53.55;100726.47;4916062;29;8935;-77
2021/06/22 01:16:34;;;;;;;;;30.50;25.00;;;;;25.76;54.82;100708.53;4902975;29;9587;-77
2021/06/22 01:19:05;;;;;;;;;48.75;40.50;;;;;25.67;54.54;100701.81;4900072;29;8873;-78
2021/06/22 01:22:01;;;;;;;;;30.60;29.40;;;;;25.64;54.42;100726.13;4915742;29;8894;-77
2021/06/22 01:24:57;;;;;;;;;59.25;45.75;;;;;25.63;55.84;100710.38;4902951;29;8923;-77
2021/06/22 01:27:34;;;;;;;;;41.50;36.00;;;;;25.62;55.69;100725.78;4916705;29;8852;-77
2021/06/22 01:30:32;;;;;;;;;16.80;14.80;;;;;25.39;55.13;100711.66;4902994;29;9010;-77
2021/06/22 01:33:27;;;;;;;;;35.20;28.80;;;;;25.48;55.61;100734.53;4915830;29;8868;-77
2021/06/22 01:36:23;;;;;;;;;33.20;29.00;;;;;25.54;55.31;100732.81;4903156;29;8879;-77
2021/06/22 01:39:18;;;;;;;;;23.80;21.00;;;;;25.56;55.43;100721.03;4915334;29;8970;-77
2021/06/22 01:42:14;;;;;;;;;34.50;31.00;;;;;25.51;56.02;100708.19;4902996;29;8856;-77
2021/06/22 01:45:10;;;;;;;;;8.20;6.00;;;;;25.33;55.65;100730.34;4902796;29;8866;-78
2021/06/22 01:48:06;;;;;;;;;16.00;11.80;;;;;25.28;56.76;100719.53;4915502;29;8951;-78
2021/06/22 01:51:02;;;;;;;;;9.80;9.00;;;;;25.12;56.80;100729.50;4915768;29;8872;-76
2021/06/22 01:53:59;;;;;;;;;7.00;6.40;;;;;25.11;56.77;100738.41;4915289;29;8856;-76
2021/06/22 01:56:55;;;;;;;;;9.20;9.20;;;;;25.10;56.43;100734.78;4902524;29;8848;-77
2021/06/22 01:59:52;;;;;;;;;6.40;5.80;;;;;25.28;56.72;100728.00;4897069;29;8885;-77
2021/06/22 02:02:48;;;;;;;;;16.80;14.60;;;;;25.21;56.46;100729.72;4887842;29;9648;-76
2021/06/22 02:05:44;;;;;;;;;11.40;11.40;;;;;25.30;55.83;100726.34;4899607;29;8957;-77
2021/06/22 02:08:40;;;;;;;;;12.40;10.40;;;;;25.08;55.02;100713.81;4898738;29;8850;-76
2021/06/22 02:11:09;;;;;;;;;17.40;15.60;;;;;25.19;54.71;100732.19;4900207;29;8878;-77
2021/06/22 02:14:05;;;;;;;;;15.60;15.60;;;;;25.12;56.03;100726.66;4899655;29;8866;-77
2021/06/22 02:17:01;;;;;;;;;13.00;12.60;;;;;25.25;55.29;100731.72;4887201;29;8975;-77
2021/06/22 02:19:56;;;;;;;;;10.60;10.00;;;;;25.20;54.81;100730.97;4899630;29;8867;-78
2021/06/22 02:22:52;;;;;;;;;10.60;9.20;;;;;25.24;53.79;100728.09;4887649;29;8898;-78
2021/06/22 02:25:48;;;;;;;;;18.40;16.60;;;;;25.37;56.36;100728.25;4900416;29;8887;-78
2021/06/22 02:28:43;;;;;;;;;37.60;27.40;;;;;25.34;54.51;100731.94;4899319;29;8869;-77
2021/06/22 02:31:39;;;;;;;;;53.00;43.00;;;;;25.25;53.88;100729.69;4886544;29;8858;-77
2021/06/22 02:34:34;;;;;;;;;50.75;39.50;;;;;25.32;55.22;100720.28;4899047;29;8867;-77
2021/06/22 02:37:30;;;;;;;;;60.00;47.75;;;;;25.32;54.06;100734.44;4899031;29;8901;-77
2021/06/22 02:40:13;;;;;;;;;50.50;40.50;;;;;25.09;54.31;100733.19;4885221;29;9748;-78
2021/06/22 02:43:09;;;;;;;;;28.50;27.75;;;;;25.17;54.79;100736.69;4899373;29;8839;-76
2021/06/22 02:46:04;;;;;;;;;43.50;35.75;;;;;25.14;54.47;100741.16;4886176;29;8871;-77
2021/06/22 02:49:00;;;;;;;;;40.20;29.00;;;;;25.17;54.13;100734.66;4899229;29;8858;-77
2021/06/22 02:51:57;;;;;;;;;24.40;21.60;;;;;25.27;55.02;100737.75;4898664;29;8867;-77
2021/06/22 02:54:52;;;;;;;;;26.20;19.60;;;;;25.18;54.83;100746.78;4898412;29;8890;-76
2021/06/22 02:57:51;;;;;;;;;20.60;19.20;;;;;25.25;54.77;100745.88;4902158;29;8896;-76
2021/06/22 03:00:47;;;;;;;;;24.60;22.60;;;;;25.05;55.73;100752.25;4916567;29;8853;-76
2021/06/22 03:03:42;;;;;;;;;20.40;19.00;;;;;25.26;55.04;100753.13;4917534;29;8848;-77
2021/06/22 03:06:38;;;;;;;;;14.20;11.40;;;;;25.25;54.90;100755.16;4917318;29;8876;-76
2021/06/22 03:09:07;;;;;;;;;30.40;27.20;;;;;25.23;56.85;100741.44;4918969;29;8930;-76
2021/06/22 03:12:04;;;;;;;;;14.40;14.40;;;;;25.19;55.69;100749.19;4916106;29;9007;-76
2021/06/22 03:14:59;;;;;;;;;19.80;16.00;;;;;25.31;54.70;100752.66;4917278;29;8856;-77
2021/06/22 03:17:55;;;;;;;;;21.40;18.80;;;;;25.37;54.64;100742.41;4917266;29;8875;-78
2021/06/22 03:20:51;;;;;;;;;17.00;13.80;;;;;25.29;54.78;100752.25;4917606;29;8868;-77
2021/06/22 03:23:48;;;;;;;;;12.40;9.80;;;;;25.25;54.27;100743.84;4917174;29;8875;-75
2021/06/22 03:26:44;;;;;;;;;20.20;16.20;;;;;25.34;55.19;100755.41;4916560;29;8863;-76
2021/06/22 03:29:40;;;;;;;;;16.00;12.20;;;;;25.32;54.99;100766.34;4904666;29;8868;-77
2021/06/22 03:32:36;;;;;;;;;22.00;17.80;;;;;25.40;54.38;100773.50;4917303;29;8868;-76
2021/06/22 03:35:31;;;;;;;;;27.40;20.00;;;;;25.44;54.07;100776.25;4917207;29;9809;-76
2021/06/22 03:38:27;;;;;;;;;19.80;17.60;;;;;25.24;53.89;100779.03;4916985;29;9665;-75
2021/06/22 03:41:23;;;;;;;;;24.60;19.00;;;;;25.47;54.83;100783.91;4898500;29;8934;-76
2021/06/22 03:44:19;;;;;;;;;33.60;24.00;;;;;25.32;54.01;100774.84;4915861;29;9282;-76
2021/06/22 03:47:14;;;;;;;;;19.60;15.40;;;;;25.39;53.51;100779.59;4904301;29;8852;-75
2021/06/22 03:50:14;;;;;;;;;18.80;17.20;;;;;25.45;53.54;100789.16;4902373;29;8867;-76
2021/06/22 03:53:10;;;;;;;;;22.40;18.60;;;;;25.66;54.06;100788.81;4912672;29;9090;-76
2021/06/22 03:56:06;;;;;;;;;25.40;21.20;;;;;25.51;54.15;100798.78;4911626;29;8854;-76
2021/06/22 03:59:02;;;;;;;;;25.80;18.20;;;;;25.62;52.80;100792.94;4897660;29;8878;-75
2021/06/22 04:01:58;;;;;;;;;25.80;16.80;;;;;25.44;52.52;100801.72;4911560;29;8891;-81
2021/06/22 04:04:53;;;;;;;;;19.80;15.20;;;;;25.67;52.42;100796.06;4916554;29;8871;-76
2021/06/22 04:07:21;;;;;;;;;25.80;21.60;;;;;25.90;51.54;100800.94;4917479;29;8872;-75
2021/06/22 04:10:17;;;;;;;;;22.40;15.60;;;;;25.81;52.86;100799.91;4897649;29;8913;-75
2021/06/22 04:12:45;;;;;;;;;17.80;15.80;;;;;25.84;52.35;100804.69;4882107;29;8988;-76
2021/06/22 04:15:41;;;;;;;;;15.80;15.80;;;;;25.94;51.76;100803.72;4884806;29;8855;-75
2021/06/22 04:18:37;;;;;;;;;21.40;15.00;;;;;26.06;52.47;100803.06;4897683;29;8878;-76
2021/06/22 04:21:32;;;;;;;;;20.40;13.80;;;;;26.12;50.83;100800.53;4884974;29;8914;-76
2021/06/22 04:24:28;;;;;;;;;17.00;14.40;;;;;26.23;51.61;100799.09;4897809;29;9087;-75
2021/06/22 04:27:23;;;;;;;;;21.00;18.80;;;;;26.27;50.56;100796.97;4897599;29;8961;-77
2021/06/22 04:30:20;;;;;;;;;19.60;16.80;;;;;26.03;49.96;100804.72;4897387;29;8858;-81
2021/06/22 04:33:16;;;;;;;;;29.80;24.40;;;;;26.08;50.20;100814.78;4897168;29;8886;-79
2021/06/22 04:36:04;;;;;;;;;24.20;15.00;;;;;26.19;50.15;100815.34;4897705;29;9630;-75
2021/06/22 04:38:31;;;;;;;;;22.60;20.40;;;;;26.28;50.73;100806.25;4912231;29;8959;-75
2021/06/22 04:41:27;;;;;;;;;21.60;16.80;;;;;26.31;49.40;100808.25;4903451;29;8908;-80
2021/06/22 04:44:23;;;;;;;;;20.00;18.60;;;;;26.62;48.70;100825.03;4903424;29;8840;-75
2021/06/22 04:47:19;;;;;;;;;19.40;16.40;;;;;26.53;48.68;100820.78;4904040;29;8890;-74
2021/06/22 04:50:15;;;;;;;;;25.00;18.40;;;;;26.70;48.38;100826.50;4915701;29;8876;-76
2021/06/22 04:53:11;;;;;;;;;19.60;16.60;;;;;26.66;48.96;100820.88;4916910;29;8856;-75
2021/06/22 04:56:06;;;;;;;;;25.20;20.00;;;;;26.81;47.91;100827.03;4903046;29;8852;-74
2021/06/22 04:59:03;;;;;;;;;23.80;16.40;;;;;26.77;48.16;100829.97;4915816;29;8931;-75
2021/06/22 05:01:59;;;;;;;;;36.00;20.80;;;;;27.10;47.94;100839.38;4915787;29;8933;-74
2021/06/22 05:04:56;;;;;;;;;47.80;31.60;;;;;27.11;48.06;100840.97;4917917;29;8986;-73
2021/06/22 05:07:51;;;;;;;;;20.40;14.40;;;;;27.09;47.64;100834.13;4903107;29;8920;-75
2021/06/22 05:10:47;;;;;;;;;19.60;17.80;;;;;27.11;47.79;100838.13;4915950;29;8880;-76
2021/06/22 05:13:46;;;;;;;;;27.20;21.00;;;;;27.29;47.91;100840.53;4915828;29;8892;-76
2021/06/22 05:16:41;;;;;;;;;23.00;18.60;;;;;27.18;47.99;100851.34;4915916;29;8970;-75
2021/06/22 05:19:39;;;;;;;;;29.40;19.60;;;;;27.14;47.02;100850.63;4915895;29;8856;-75
2021/06/22 05:22:35;;;;;;;;;31.80;22.60;;;;;27.35;47.76;100855.00;4902758;29;9682;-76
2021/06/22 05:25:17;;;;;;;;;24.80;22.60;;;;;27.45;47.58;100853.94;4884898;29;9621;-80
2021/06/22 05:27:45;;;;;;;;;25.80;15.40;;;;;27.50;46.19;100859.09;4897872;29;8878;-75
2021/06/22 05:30:14;;;;;;;;;24.60;18.00;;;;;27.34;47.46;100867.59;4889873;29;8868;-75
2021/06/22 05:32:42;;;;;;;;;18.00;16.60;;;;;27.73;45.82;100871.56;4915021;29;8864;-75
2021/06/22 05:35:11;;;;;;;;;32.80;21.60;;;;;27.52;46.63;100875.69;4917401;29;8864;-75
2021/06/22 05:37:39;;;;;;;;;30.20;19.20;;;;;27.69;46.37;100874.50;4917974;29;8907;-76
2021/06/22 05:40:10;;;;;;;;;14.00;13.60;;;;;27.98;45.90;100871.69;4919094;29;8876;-76
2021/06/22 05:42:38;;;;;;;;;32.60;24.20;;;;;28.24;46.03;100881.16;4918249;29;8907;-76
2021/06/22 05:45:08;;;;;;;;;22.40;18.60;;;;;28.18;44.86;100872.38;4903011;29;8876;-75
2021/06/22 05:47:36;;;;;;;;;27.20;18.80;;;;;28.19;45.86;100878.84;4918578;29;8872;-75
2021/06/22 05:50:31;;;;;;;;;29.20;21.20;;;;;28.10;44.50;100870.97;4917922;29;8880;-74
2021/06/22 05:53:27;;;;;;;;;24.40;17.60;;;;;28.40;44.97;100866.13;4918299;29;8852;-74
2021/06/22 05:56:23;;;;;;;;;19.80;16.00;;;;;28.33;45.41;100875.66;4919233;29;8944;-74
2021/06/22 05:59:18;;;;;;;;;24.20;21.00;;;;;28.40;44.16;100875.44;4906294;29;8950;-79
2021/06/22 06:02:14;;;;;;;;;22.20;17.20;;;;;28.65;44.57;100880.41;4906460;29;8876;-76
2021/06/22 06:04:42;;;;;;;;;24.00;20.40;;;;;28.76;45.04;100882.97;4919172;29;8910;-75
2021/06/22 06:07:37;;;;;;;;;28.60;21.40;;;;;28.88;43.96;100882.16;4917908;29;9015;-76
2021/06/22 06:10:33;;;;;;;;;22.20;18.20;;;;;28.92;43.59;100882.91;4904989;29;8875;-75
2021/06/22 06:13:01;;;;;;;;;31.80;20.00;;;;;29.16;44.11;100889.06;4918324;29;8868;-76
2021/06/22 06:15:57;;;;;;;;;25.00;15.20;;;;;29.22;43.01;100892.97;4904724;29;8868;-76
2021/06/22 06:18:27;;;;;;;;;25.20;19.00;;;;;29.20;42.08;100894.66;4901845;29;8856;-76
2021/06/22 06:20:57;;;;;;;;;8.60;5.80;;;;;29.22;43.13;100892.97;4918532;29;8868;-76
2021/06/22 06:23:40;;;;;;;;;23.00;17.60;;;;;29.24;43.06;100886.81;4918338;29;8902;-76
2021/06/22 06:26:12;;;;;;;;;37.20;26.80;;;;;29.33;42.74;100890.56;4916897;29;8995;-76
2021/06/22 06:28:45;;;;;;;;;20.00;18.40;;;;;29.40;41.95;100898.06;4918108;29;8876;-76
2021/06/22 06:31:13;;;;;;;;;21.20;19.60;;;;;29.53;41.46;100898.91;4902417;29;8880;-77
2021/06/22 06:33:41;;;;;;;;;18.60;17.20;;;;;29.39;41.76;100893.63;4917932;29;8883;-77
2021/06/22 06:36:09;;;;;;;;;18.80;14.40;;;;;29.13;42.74;100889.97;4919013;29;8904;-76
2021/06/22 06:38:38;;;;;;;;;28.40;20.00;;;;;29.66;41.22;100895.22;4902031;29;8887;-77
2021/06/22 06:41:06;;;;;;;;;22.80;18.80;;;;;29.79;42.15;100890.31;4918891;29;9606;-77
2021/06/22 06:43:35;;;;;;;;;23.20;17.00;;;;;29.80;41.51;100894.75;4902539;29;8860;-77
2021/06/22 06:46:02;;;;;;;;;20.40;14.80;;;;;29.47;42.27;100885.66;4917558;29;8870;-77
2021/06/22 06:48:33;;;;;;;;;25.00;20.80;;;;;29.74;42.19;100890.88;4903311;29;8857;-77
2021/06/22 06:51:03;;;;;;;;;13.00;11.60;;;;;30.05;41.00;100885.31;4918444;29;8872;-76
2021/06/22 06:53:33;;;;;;;;;19.80;17.40;;;;;29.94;40.80;100882.06;4917808;29;8868;-77
2021/06/22 06:56:02;;;;;;;;;21.00;16.60;;;;;30.23;41.37;100881.91;4916578;29;8958;-77
2021/06/22 06:58:30;;;;;;;;;27.20;18.40;;;;;30.36;42.16;100874.06;4916609;29;8870;-76
2021/06/22 07:00:58;;;;;;;;;22.80;17.00;;;;;30.16;39.43;100874.38;4917722;29;8903;-76
2021/06/22 07:03:26;;;;;;;;;10.40;4.40;;;;;30.24;38.84;100877.78;4918032;29;8901;-76
2021/06/22 07:05:54;;;;;;;;;21.20;14.00;;;;;30.35;39.69;100878.16;4918319;29;8856;-77
2021/06/22 07:08:22;;;;;;;;;24.00;17.60;;;;;30.41;40.47;100884.88;4918771;29;8861;-76
2021/06/22 07:10:49;;;;;;;;;16.20;16.20;;;;;30.46;38.78;100878.59;4902075;29;8887;-77
2021/06/22 07:13:18;;;;;;;;;25.00;19.00;;;;;30.64;39.10;100880.78;4918489;29;8860;-77
2021/06/22 07:15:47;;;;;;;;;16.00;11.40;;;;;30.51;39.22;100892.25;4918707;29;8864;-77
2021/06/22 07:18:15;;;;;;;;;17.20;13.80;;;;;30.82;38.43;100880.13;4901892;29;8868;-77
2021/06/22 07:20:43;;;;;;;;;17.40;8.40;;;;;30.88;39.24;100883.97;4918984;29;8883;-78
2021/06/22 07:23:12;;;;;;;;;18.80;13.80;;;;;30.71;37.83;100884.19;4918036;29;8864;-77
2021/06/22 07:25:40;;;;;;;;;13.60;13.20;;;;;30.93;39.27;100900.50;4918416;29;8899;-76
2021/06/22 07:28:08;;;;;;;;;18.80;14.40;;;;;30.95;38.54;100889.41;4918246;29;8840;-76
2021/06/22 07:30:36;;;;;;;;;14.60;11.80;;;;;31.14;37.89;100890.31;4918521;29;8935;-77
2021/06/22 07:33:04;;;;;;;;;16.20;14.20;;;;;31.29;38.12;100896.28;4918244;29;8852;-77
2021/06/22 07:35:33;;;;;;;;;13.80;11.80;;;;;31.52;38.33;100898.59;4918283;29;8880;-77
2021/06/22 07:38:02;;;;;;;;;18.80;12.80;;;;;31.40;38.49;100906.00;4918435;29;8884;-77
2021/06/22 07:40:30;;;;;;;;;21.80;16.40;;;;;31.57;37.89;100902.88;4918187;29;8875;-76
2021/06/22 07:42:59;;;;;;;;;17.00;15.40;;;;;31.54;36.98;100899.69;4918473;29;8896;-77
2021/06/22 07:45:27;;;;;;;;;14.20;11.20;;;;;31.56;37.57;100902.06;4901647;29;8966;-77
2021/06/22 07:47:56;;;;;;;;;25.40;15.80;;;;;31.74;37.84;100904.19;4885343;29;8872;-77
2021/06/22 07:50:24;;;;;;;;;19.40;17.40;;;;;31.93;36.87;100910.78;4918693;29;8884;-77
2021/06/22 07:52:53;;;;;;;;;13.80;8.40;;;;;32.16;36.40;100912.25;4918562;29;8876;-77
2021/06/22 07:55:24;;;;;;;;;13.80;11.80;;;;;32.41;36.46;100923.41;4918072;29;8898;-76
2021/06/22 07:57:53;;;;;;;;;11.60;10.40;;;;;32.39;35.94;100923.09;4916432;29;8895;-78
2021/06/22 08:03:00;;;;;;;;;14.00;13.40;;;;;32.72;34.48;100934.66;4917880;29;8896;-77
2021/06/22 08:05:32;;;;;;;;;15.00;13.60;;;;;32.49;35.95;100930.41;4917682;29;8955;-76
2021/06/22 08:08:00;;;;;;;;;14.60;12.80;;;;;32.53;35.68;100933.13;4917530;29;8943;-77
2021/06/22 08:10:28;;;;;;;;;18.00;14.20;;;;;32.83;35.51;100925.59;4917779;29;8982;-76
2021/06/22 08:12:57;;;;;;;;;16.20;10.40;;;;;32.63;33.83;100928.97;4917664;29;8888;-77
2021/06/22 08:15:27;;;;;;;;;11.80;9.20;;;;;32.99;33.71;100930.22;4901421;29;8876;-77
2021/06/22 08:17:56;;;;;;;;;13.20;11.80;;;;;32.96;33.79;100929.09;4917707;29;8872;-77
2021/06/22 08:20:24;;;;;;;;;9.80;9.00;;;;;33.06;32.94;100935.63;4917634;29;8967;-76
2021/06/22 08:22:53;;;;;;;;;11.40;10.00;;;;;33.35;32.98;100932.16;4917409;29;8868;-77
2021/06/22 08:25:23;;;;;;;;;14.20;11.00;;;;;33.35;33.09;100940.75;4917853;29;8951;-77
2021/06/22 08:27:53;;;;;;;;;8.20;6.80;;;;;33.24;30.74;100931.88;4917889;29;8872;-77
2021/06/22 08:30:22;;;;;;;;;5.20;4.40;;;;;33.38;29.36;100932.03;4917496;29;8930;-77
2021/06/22 08:32:52;;;;;;;;;7.00;6.00;;;;;33.59;28.85;100940.88;4917382;29;8892;-79
2021/06/22 08:35:48;;;;;;;;;3.20;3.20;;;;;33.69;29.06;100946.06;4916364;29;8864;-79
2021/06/22 08:38:44;;;;;;;;;5.60;5.60;;;;;33.94;28.47;100944.03;4916268;29;8859;-77
2021/06/22 08:41:40;;;;;;;;;5.60;5.20;;;;;33.63;30.70;100941.47;4915951;29;8966;-78
2021/06/22 08:44:38;;;;;;;;;3.00;3.00;;;;;33.70;28.74;100941.91;4900348;29;8951;-76
2021/06/22 08:47:34;;;;;;;;;4.00;4.00;;;;;33.95;29.79;100948.47;4912007;29;8844;-75
2021/06/22 08:50:30;;;;;;;;;6.80;4.00;;;;;34.03;28.29;100940.31;4900404;29;8869;-76
2021/06/22 08:53:06;;;;;;;;;4.20;4.20;;;;;34.23;28.15;100943.38;4894110;29;8989;-83
2021/06/22 08:55:34;;;;;;;;;3.80;3.80;;;;;33.95;29.43;100951.34;4912586;29;8926;-77
2021/06/22 08:58:30;;;;;;;;;2.80;2.80;;;;;34.19;28.53;100945.59;4912703;29;8971;-76
2021/06/22 09:01:28;;;;;;;;;5.40;4.80;;;;;34.44;28.75;100950.09;4915088;29;8940;-76
2021/06/22 09:04:23;;;;;;;;;5.00;4.40;;;;;34.73;28.37;100955.88;4916594;29;8879;-76
2021/06/22 09:07:40;;;;;;;;;3.00;2.60;;;;;34.77;27.57;100953.63;4915863;29;9515;-76
2021/06/22 09:10:37;;;;;;;;;3.20;2.40;;;;;34.63;28.78;100944.97;4912822;29;8851;-85
2021/06/22 09:13:33;;;;;;;;;0.80;0.00;;;;;34.62;27.60;100940.53;4888268;29;8887;-76
2021/06/22 09:16:06;;;;;;;;;1.60;1.60;;;;;34.54;28.57;100937.25;4902025;29;8902;-76
2021/06/22 09:19:09;;;;;;;;;14.40;9.00;;;;;34.84;27.71;100938.88;4900690;29;8875;-77
2021/06/22 09:21:47;;;;;;;;;6.40;5.80;;;;;34.64;28.42;100944.47;4886099;29;8894;-80
2021/06/22 09:25:07;;;;;;;;;3.60;3.20;;;;;35.12;26.90;100935.75;4902452;29;8897;-76
2021/06/22 09:28:05;;;;;;;;;2.00;2.00;;;;;35.06;27.48;100926.22;4888225;29;8922;-75
2021/06/22 09:31:04;;;;;;;;;2.60;2.60;;;;;35.06;27.97;100927.00;4888267;29;8867;-75
2021/06/22 09:34:01;;;;;;;;;3.20;3.00;;;;;35.49;28.17;100938.19;4900885;29;8859;-75
2021/06/22 09:37:02;;;;;;;;;5.00;5.00;;;;;34.86;29.01;100955.59;4920051;29;8856;-77
2021/06/22 09:39:57;;;;;;;;;6.00;4.80;;;;;35.11;28.60;100948.50;4919423;29;9035;-75
2021/06/22 09:42:58;;;;;;;;;8.20;4.60;;;;;34.60;29.84;100946.75;4907053;29;8886;-82
2021/06/22 09:45:28;;;;;;;;;2.40;2.40;;;;;34.66;29.69;100947.66;4889674;29;8902;-76
2021/06/22 09:48:07;;;;;;;;;2.00;2.00;;;;;34.78;30.25;100946.56;4920558;29;9621;-77
2021/06/22 09:50:45;;;;;;;;;5.40;3.80;;;;;35.21;28.22;100955.75;4920728;29;8951;-76
2021/06/22 09:53:34;;;;;;;;;2.40;2.40;;;;;35.23;27.44;100946.63;4919868;29;8849;-75
2021/06/22 09:56:03;;;;;;;;;5.80;5.80;;;;;35.07;29.76;100947.91;4921091;29;8943;-82
2021/06/22 09:58:49;;;;;;;;;4.80;4.00;;;;;35.45;29.36;100954.84;4919247;29;8890;-73
2021/06/22 10:01:37;;;;;;;;;11.00;5.40;;;;;35.39;29.11;100948.97;4904488;29;8872;-78
2021/06/22 10:04:12;;;;;;;;;4.00;3.20;;;;;34.68;28.63;100950.03;4889387;29;8974;-76
2021/06/22 10:07:03;;;;;;;;;4.00;3.40;;;;;34.96;29.10;100953.44;4890260;29;8884;-75
2021/06/22 10:09:35;;;;;;;;;2.60;2.00;;;;;35.08;28.60;100943.75;4887865;29;8872;-75
2021/06/22 10:12:08;;;;;;;;;2.60;2.60;;;;;35.10;28.41;100947.72;4903042;29;8887;-78
2021/06/22 10:15:07;;;;;;;;;5.40;5.00;;;;;34.93;28.48;100943.75;4906043;29;8848;-77
2021/06/22 10:18:06;;;;;;;;;2.20;2.20;;;;;35.43;26.61;100943.03;4918108;29;9523;-76
2021/06/22 10:21:01;;;;;;;;;1.00;1.00;;;;;35.52;26.86;100940.88;4905712;29;9575;-80
2021/06/22 10:23:30;;;;;;;;;4.60;4.00;;;;;35.47;28.04;100937.88;4900503;29;8888;-76
2021/06/22 10:26:29;;;;;;;;;4.60;3.80;;;;;35.07;26.96;100936.41;4900259;29;9599;-78
2021/06/22 10:29:27;;;;;;;;;3.00;3.00;;;;;35.28;26.61;100934.44;4901212;29;9588;-75
2021/06/22 10:32:25;;;;;;;;;2.40;2.40;;;;;35.29;27.31;100939.69;4901588;29;8944;-86
2021/06/22 10:34:59;;;;;;;;;2.20;2.20;;;;;35.46;27.02;100942.84;4915259;29;8951;-74
2021/06/22 10:38:07;;;;;;;;;4.60;4.60;;;;;35.74;27.03;100940.41;4918679;29;8879;-75
2021/06/22 10:41:04;;;;;;;;;2.00;2.00;;;;;35.75;26.98;100932.56;4907162;29;8859;-76
2021/06/22 10:44:00;;;;;;;;;1.00;1.00;;;;;35.47;27.55;100932.94;4918986;29;9642;-75
2021/06/22 10:47:23;;;;;;;;;1.80;1.80;;;;;35.61;27.01;100949.38;4917779;29;8852;-85
2021/06/22 10:50:17;;;;;;;;;2.00;2.00;;;;;35.62;25.65;100930.81;4919416;29;8884;-75
2021/06/22 10:53:14;;;;;;;;;3.20;2.00;;;;;35.39;27.50;100926.78;4918481;29;8891;-77
2021/06/22 10:56:15;;;;;;;;;3.80;2.80;;;;;35.44;27.27;100933.16;4918933;29;9673;-76
2021/06/22 10:59:11;;;;;;;;;1.20;1.20;;;;;35.40;26.97;100941.97;4917359;29;8861;-77
2021/06/22 11:02:07;;;;;;;;;1.20;1.20;;;;;35.55;26.23;100934.09;4905902;29;8841;-78
2021/06/22 11:05:16;;;;;;;;;2.80;2.00;;;;;35.17;28.45;100937.09;4905894;29;8880;-75
2021/06/22 11:07:44;;;;;;;;;1.80;1.80;;;;;35.57;27.11;100933.59;4918278;29;8869;-76
2021/06/22 11:10:18;;;;;;;;;1.20;1.20;;;;;35.47;26.48;100926.38;4903460;29;8872;-82
2021/06/22 11:12:52;;;;;;;;;2.40;1.40;;;;;35.45;26.25;100926.91;4918561;29;8880;-76
2021/06/22 11:15:20;;;;;;;;;2.20;2.20;;;;;35.54;27.52;100928.84;4918719;29;8871;-75
2021/06/22 11:18:18;;;;;;;;;2.20;2.20;;;;;35.72;26.21;100927.81;4918235;29;8888;-81
2021/06/22 11:21:19;;;;;;;;;2.80;1.20;;;;;35.98;25.49;100933.72;4906426;29;9034;-75
2021/06/22 11:24:24;;;;;;;;;1.00;1.00;;;;;36.01;27.30;100930.59;4896521;29;8918;-76
2021/06/22 11:26:58;;;;;;;;;1.40;0.20;;;;;35.69;25.45;100918.09;4908345;29;8862;-85
2021/06/22 11:29:53;;;;;;;;;1.20;1.20;;;;;35.83;25.34;100919.34;4907051;29;8958;-75
2021/06/22 11:32:32;;;;;;;;;2.20;1.00;;;;;35.69;26.39;100911.56;4899042;29;8867;-81
2021/06/22 11:35:25;;;;;;;;;1.60;1.60;;;;;35.99;26.78;100915.94;4899526;29;8862;-78
2021/06/22 11:38:12;;;;;;;;;1.80;1.00;;;;;36.39;25.01;100906.50;4899563;29;8883;-76
2021/06/22 11:41:16;;;;;;;;;0.40;0.40;;;;;36.37;25.02;100899.69;4898676;29;8893;-80
2021/06/22 11:44:14;;;;;;;;;0.00;0.00;;;;;36.63;24.72;100903.34;4886360;29;8863;-76
2021/06/22 11:46:44;;;;;;;;;0.60;0.60;;;;;36.62;25.52;100895.22;4899130;29;8863;-73
2021/06/22 11:49:42;;;;;;;;;2.00;2.00;;;;;36.73;25.03;100893.25;4897640;29;8883;-75
2021/06/22 11:52:20;;;;;;;;;1.40;1.40;;;;;35.89;25.94;100892.25;4882640;29;8878;-76
2021/06/22 11:55:04;;;;;;;;;1.80;1.80;;;;;36.07;24.95;100888.31;5187452;27;178902;-77
2021/06/22 11:57:34;;;;;;;;;0.80;0.80;;;;;35.96;24.39;100896.78;5175877;27;8839;-80
2021/06/22 12:00:12;;;;;;;;;0.60;0.60;;;;;36.06;24.94;100901.13;5194551;27;8842;-77
2021/06/22 12:03:08;;;;;;;;;1.00;1.00;;;;;36.24;25.13;100891.38;5173070;27;8867;-76
2021/06/22 12:05:50;;;;;;;;;1.00;1.00;;;;;36.08;24.69;100889.88;5163525;27;8929;-77
2021/06/22 12:08:46;;;;;;;;;0.00;0.00;;;;;36.10;26.09;100889.38;5190687;27;8862;-81
2021/06/22 12:11:44;;;;;;;;;2.40;2.40;;;;;36.04;27.18;100889.31;5170857;27;8847;-77
2021/06/22 12:14:34;;;;;;;;;14.00;14.00;;;;;35.90;28.41;100882.34;5173006;27;8833;-75
2021/06/22 12:17:17;;;;;;;;;14.20;14.20;;;;;36.31;27.70;100895.91;5173582;27;8841;-76
2021/06/22 12:20:24;;;;;;;;;18.40;17.80;;;;;36.37;27.77;100891.03;5180880;27;9588;-77
2021/06/22 12:23:20;;;;;;;;;31.80;30.20;;;;;36.07;27.26;100896.16;5172292;27;8966;-75
2021/06/22 12:25:53;;;;;;;;;34.60;31.80;;;;;36.10;27.31;100898.00;5166326;27;9081;-75
2021/06/22 12:28:24;;;;;;;;;3.00;3.00;;;;;35.82;26.90;100898.41;5187466;27;8829;-76
2021/06/22 12:30:57;;;;;;;;;6.60;6.60;;;;;35.72;28.00;100899.03;5172983;27;8841;-76
2021/06/22 12:33:28;;;;;;;;;3.00;3.00;;;;;35.91;25.96;100898.31;5157817;27;8844;-77
2021/06/22 12:36:24;;;;;;;;;9.80;9.60;;;;;35.68;27.66;100904.22;5171139;27;8841;-76
2021/06/22 12:39:06;;;;;;;;;18.80;18.80;;;;;35.64;28.30;100899.47;5189669;27;8806;-74
2021/06/22 12:41:34;;;;;;;;;16.80;16.80;;;;;35.40;29.31;100895.97;5177691;27;8917;-76
2021/06/22 12:44:06;;;;;;;;;11.00;11.00;;;;;35.28;29.67;100897.84;5180390;27;8865;-75
2021/06/22 12:46:37;;;;;;;;;7.00;7.00;;;;;35.23;28.43;100892.00;5186096;27;8839;-74
2021/06/22 12:49:25;;;;;;;;;2.20;2.20;;;;;35.24;27.54;100890.72;5170051;27;8837;-74
2021/06/22 12:52:21;;;;;;;;;1.60;1.60;;;;;35.70;27.58;100885.16;5166613;27;8830;-74